NCAR-RAP Real-Time Weather Data

Output produced by METARs form (10 April 2020  07:01 UTC)
found at http://weather.rap.ucar.edu/surface/
 
KBLF 100652Z AUTO 33007G19KT 290V360 1 1/4SM -SN BR OVC017 00/M01 A2972 RMK AO2 PK WND 30029/0615 SNB18 SLP063 P0000 T00001011 TSNO